アシガバート の空港の天気 - METARとTAF

アシガバート空港 ( UTAA / ASB ) - トルクメニスタン アシガバート
飛行場実況気象(Metar)
観測時間01/20 22:00 +05 (01/20 17:00 UTC)
風向・風速北北西 2m/s
視程10km以上
天気現象
全天を覆う雲 雲底高度 1950m
気温6℃
湿度57%
気圧1025hPa
METARUTAA 201700Z 33004KT 9999 OVC064 06/M02 Q1025 R30L/CLRD70 NOSIG
過去の天気等 Google飛行場航空写真 Wunderground天気予報

過去48時間のMETAR

飛行場予報(TAF)
発表時間: 1/20 21:30 +05 (1/20 16:30 UTC)
予報対象時間: 20日23時 +05 ~ 21日23時 +05
風向・風速北北西 8m/s
視程5,000m
全天の8割程度の雲 雲底高度 610m
全天の4割程度の積乱雲 雲底高度 910m
21日5時 +05 ~ 21日10時 +05 に一時的に
視程2,000m
天気現象もや
全天の8割程度の雲 雲底高度 150m
21日17時 +05 ~ 21日23時 +05 に一時的に
風向・風速西 9m/s
視程3,000m
天気現象弱い雨
全天の8割程度の雲 雲底高度 180m
TAF UTAA 201630Z 2018/2118 34016KT 5000 BKN020 SCT030CB 530009
TEMPO 2100/2105 2000 BR BKN005
TEMPO 2112/2118 27018KT 3000 -RA BKN006